sensor_id;sensor_type;location;lat;lon;timestamp;P1;durP1;ratioP1;P2;durP2;ratioP2
438;SDS011;206;48.782;9.252;2024-03-25T00:01:50;2.40;;;1.97;;
438;SDS011;206;48.782;9.252;2024-03-25T00:04:16;3.27;;;1.97;;
438;SDS011;206;48.782;9.252;2024-03-25T00:06:42;1.63;;;1.47;;
438;SDS011;206;48.782;9.252;2024-03-25T00:09:08;4.17;;;1.73;;
438;SDS011;206;48.782;9.252;2024-03-25T00:11:38;3.30;;;1.70;;
438;SDS011;206;48.782;9.252;2024-03-25T00:14:05;4.97;;;1.47;;
438;SDS011;206;48.782;9.252;2024-03-25T00:16:30;6.17;;;1.70;;
438;SDS011;206;48.782;9.252;2024-03-25T00:18:56;3.00;;;2.00;;
438;SDS011;206;48.782;9.252;2024-03-25T00:21:21;2.80;;;1.80;;
438;SDS011;206;48.782;9.252;2024-03-25T00:23:47;3.53;;;2.10;;
438;SDS011;206;48.782;9.252;2024-03-25T00:26:13;2.93;;;2.27;;
438;SDS011;206;48.782;9.252;2024-03-25T00:28:38;3.27;;;2.40;;
438;SDS011;206;48.782;9.252;2024-03-25T00:31:04;4.60;;;2.23;;
438;SDS011;206;48.782;9.252;2024-03-25T00:33:29;2.20;;;1.67;;
438;SDS011;206;48.782;9.252;2024-03-25T00:35:55;3.67;;;2.67;;
438;SDS011;206;48.782;9.252;2024-03-25T00:38:21;2.30;;;1.83;;
438;SDS011;206;48.782;9.252;2024-03-25T00:40:46;2.40;;;1.73;;
438;SDS011;206;48.782;9.252;2024-03-25T00:43:12;4.63;;;2.20;;
438;SDS011;206;48.782;9.252;2024-03-25T00:45:37;4.10;;;1.93;;
438;SDS011;206;48.782;9.252;2024-03-25T00:48:03;4.60;;;2.80;;
438;SDS011;206;48.782;9.252;2024-03-25T00:50:29;3.03;;;2.83;;
438;SDS011;206;48.782;9.252;2024-03-25T00:52:55;2.93;;;2.10;;
438;SDS011;206;48.782;9.252;2024-03-25T00:55:21;2.10;;;1.83;;
438;SDS011;206;48.782;9.252;2024-03-25T00:57:47;5.10;;;2.63;;
438;SDS011;206;48.782;9.252;2024-03-25T01:00:13;3.67;;;3.00;;
438;SDS011;206;48.782;9.252;2024-03-25T01:02:40;5.00;;;2.47;;
438;SDS011;206;48.782;9.252;2024-03-25T01:05:06;3.23;;;2.40;;
438;SDS011;206;48.782;9.252;2024-03-25T01:07:32;6.33;;;2.63;;
438;SDS011;206;48.782;9.252;2024-03-25T01:09:58;3.03;;;1.93;;
438;SDS011;206;48.782;9.252;2024-03-25T01:12:24;4.40;;;2.27;;
438;SDS011;206;48.782;9.252;2024-03-25T01:14:50;3.10;;;2.20;;
438;SDS011;206;48.782;9.252;2024-03-25T01:17:16;3.03;;;1.93;;
438;SDS011;206;48.782;9.252;2024-03-25T01:19:42;4.03;;;2.00;;
438;SDS011;206;48.782;9.252;2024-03-25T01:22:08;2.80;;;2.20;;
438;SDS011;206;48.782;9.252;2024-03-25T01:24:34;6.93;;;2.40;;
438;SDS011;206;48.782;9.252;2024-03-25T01:26:59;3.80;;;2.60;;
438;SDS011;206;48.782;9.252;2024-03-25T01:29:25;2.40;;;1.90;;
438;SDS011;206;48.782;9.252;2024-03-25T01:31:51;3.33;;;1.80;;
438;SDS011;206;48.782;9.252;2024-03-25T01:34:16;4.87;;;2.13;;
438;SDS011;206;48.782;9.252;2024-03-25T01:36:42;5.83;;;2.27;;
438;SDS011;206;48.782;9.252;2024-03-25T01:39:08;3.00;;;1.87;;
438;SDS011;206;48.782;9.252;2024-03-25T01:41:34;10.43;;;2.67;;
438;SDS011;206;48.782;9.252;2024-03-25T01:44:00;3.90;;;2.70;;
438;SDS011;206;48.782;9.252;2024-03-25T01:46:27;5.73;;;2.20;;
438;SDS011;206;48.782;9.252;2024-03-25T01:48:52;3.40;;;2.40;;
438;SDS011;206;48.782;9.252;2024-03-25T01:51:20;2.43;;;2.23;;
438;SDS011;206;48.782;9.252;2024-03-25T01:53:48;5.73;;;2.80;;
438;SDS011;206;48.782;9.252;2024-03-25T01:56:14;2.87;;;1.73;;
438;SDS011;206;48.782;9.252;2024-03-25T01:58:42;2.33;;;2.17;;
438;SDS011;206;48.782;9.252;2024-03-25T02:01:07;6.77;;;3.90;;
438;SDS011;206;48.782;9.252;2024-03-25T02:03:38;1.97;;;1.90;;
438;SDS011;206;48.782;9.252;2024-03-25T02:06:06;3.80;;;3.57;;
438;SDS011;206;48.782;9.252;2024-03-25T02:08:34;2.13;;;1.90;;
438;SDS011;206;48.782;9.252;2024-03-25T02:11:01;5.60;;;2.63;;
438;SDS011;206;48.782;9.252;2024-03-25T02:13:27;2.70;;;2.50;;
438;SDS011;206;48.782;9.252;2024-03-25T02:15:52;4.50;;;2.40;;
438;SDS011;206;48.782;9.252;2024-03-25T02:18:20;6.40;;;3.10;;
438;SDS011;206;48.782;9.252;2024-03-25T02:20:46;4.73;;;2.60;;
438;SDS011;206;48.782;9.252;2024-03-25T02:23:12;2.90;;;2.50;;
438;SDS011;206;48.782;9.252;2024-03-25T02:25:38;4.60;;;2.13;;
438;SDS011;206;48.782;9.252;2024-03-25T02:28:06;5.30;;;3.10;;
438;SDS011;206;48.782;9.252;2024-03-25T02:30:32;4.50;;;2.37;;
438;SDS011;206;48.782;9.252;2024-03-25T02:32:57;2.60;;;1.90;;
438;SDS011;206;48.782;9.252;2024-03-25T02:35:23;4.93;;;2.87;;
438;SDS011;206;48.782;9.252;2024-03-25T02:37:50;5.33;;;2.70;;
438;SDS011;206;48.782;9.252;2024-03-25T02:40:16;2.30;;;2.00;;
438;SDS011;206;48.782;9.252;2024-03-25T02:42:43;6.70;;;2.53;;
438;SDS011;206;48.782;9.252;2024-03-25T02:45:09;3.63;;;2.40;;
438;SDS011;206;48.782;9.252;2024-03-25T02:47:35;7.23;;;2.57;;
438;SDS011;206;48.782;9.252;2024-03-25T02:50:00;2.97;;;2.50;;
438;SDS011;206;48.782;9.252;2024-03-25T02:52:26;6.87;;;2.23;;
438;SDS011;206;48.782;9.252;2024-03-25T02:54:52;3.70;;;2.37;;
438;SDS011;206;48.782;9.252;2024-03-25T02:57:19;2.80;;;2.43;;
438;SDS011;206;48.782;9.252;2024-03-25T02:59:45;2.60;;;2.30;;
438;SDS011;206;48.782;9.252;2024-03-25T03:02:10;4.40;;;2.33;;
438;SDS011;206;48.782;9.252;2024-03-25T03:04:36;5.50;;;3.13;;
438;SDS011;206;48.782;9.252;2024-03-25T03:07:01;7.23;;;2.90;;
438;SDS011;206;48.782;9.252;2024-03-25T03:09:27;4.40;;;2.47;;
438;SDS011;206;48.782;9.252;2024-03-25T03:11:53;3.20;;;2.77;;
438;SDS011;206;48.782;9.252;2024-03-25T03:14:18;4.80;;;3.00;;
438;SDS011;206;48.782;9.252;2024-03-25T03:16:44;2.83;;;2.67;;
438;SDS011;206;48.782;9.252;2024-03-25T03:19:10;4.60;;;2.53;;
438;SDS011;206;48.782;9.252;2024-03-25T03:21:35;6.57;;;3.30;;
438;SDS011;206;48.782;9.252;2024-03-25T03:24:01;2.57;;;2.00;;
438;SDS011;206;48.782;9.252;2024-03-25T03:26:28;3.60;;;2.37;;
438;SDS011;206;48.782;9.252;2024-03-25T03:28:54;4.37;;;2.33;;
438;SDS011;206;48.782;9.252;2024-03-25T03:31:19;5.80;;;2.83;;
438;SDS011;206;48.782;9.252;2024-03-25T03:33:46;4.60;;;2.60;;
438;SDS011;206;48.782;9.252;2024-03-25T03:36:13;3.93;;;2.67;;
438;SDS011;206;48.782;9.252;2024-03-25T03:38:42;3.17;;;2.30;;
438;SDS011;206;48.782;9.252;2024-03-25T03:41:08;3.93;;;2.60;;
438;SDS011;206;48.782;9.252;2024-03-25T03:43:34;3.40;;;2.50;;
438;SDS011;206;48.782;9.252;2024-03-25T03:45:59;4.33;;;2.23;;
438;SDS011;206;48.782;9.252;2024-03-25T03:48:25;3.60;;;3.00;;
438;SDS011;206;48.782;9.252;2024-03-25T03:50:51;6.23;;;3.30;;
438;SDS011;206;48.782;9.252;2024-03-25T03:53:16;2.73;;;2.30;;
438;SDS011;206;48.782;9.252;2024-03-25T03:55:42;4.40;;;3.37;;
438;SDS011;206;48.782;9.252;2024-03-25T03:58:17;6.37;;;3.43;;
438;SDS011;206;48.782;9.252;2024-03-25T04:00:43;5.30;;;2.67;;
438;SDS011;206;48.782;9.252;2024-03-25T04:03:08;4.23;;;3.00;;
438;SDS011;206;48.782;9.252;2024-03-25T04:05:34;7.80;;;3.23;;
438;SDS011;206;48.782;9.252;2024-03-25T04:07:59;5.37;;;2.20;;
438;SDS011;206;48.782;9.252;2024-03-25T04:10:26;8.07;;;3.53;;
438;SDS011;206;48.782;9.252;2024-03-25T04:12:52;6.10;;;3.27;;
438;SDS011;206;48.782;9.252;2024-03-25T04:15:17;5.37;;;4.07;;
438;SDS011;206;48.782;9.252;2024-03-25T04:17:44;2.77;;;2.63;;
438;SDS011;206;48.782;9.252;2024-03-25T04:20:11;3.80;;;3.20;;
438;SDS011;206;48.782;9.252;2024-03-25T04:22:36;3.20;;;2.43;;
438;SDS011;206;48.782;9.252;2024-03-25T04:25:05;4.43;;;2.37;;
438;SDS011;206;48.782;9.252;2024-03-25T04:27:31;3.50;;;2.67;;
438;SDS011;206;48.782;9.252;2024-03-25T04:29:57;10.57;;;3.53;;
438;SDS011;206;48.782;9.252;2024-03-25T04:32:22;7.33;;;3.20;;
438;SDS011;206;48.782;9.252;2024-03-25T04:34:48;4.03;;;3.07;;
438;SDS011;206;48.782;9.252;2024-03-25T04:37:13;9.73;;;3.93;;
438;SDS011;206;48.782;9.252;2024-03-25T04:39:40;5.23;;;3.20;;
438;SDS011;206;48.782;9.252;2024-03-25T04:42:05;3.37;;;2.70;;
438;SDS011;206;48.782;9.252;2024-03-25T04:44:31;3.90;;;3.07;;
438;SDS011;206;48.782;9.252;2024-03-25T04:46:57;5.23;;;2.83;;
438;SDS011;206;48.782;9.252;2024-03-25T04:49:22;3.70;;;2.53;;
438;SDS011;206;48.782;9.252;2024-03-25T04:51:48;3.47;;;2.53;;
438;SDS011;206;48.782;9.252;2024-03-25T04:54:16;2.93;;;2.73;;
438;SDS011;206;48.782;9.252;2024-03-25T04:56:42;4.47;;;2.83;;
438;SDS011;206;48.782;9.252;2024-03-25T04:59:09;3.90;;;2.40;;
438;SDS011;206;48.782;9.252;2024-03-25T05:01:34;6.43;;;3.60;;
438;SDS011;206;48.782;9.252;2024-03-25T05:04:01;4.20;;;3.17;;
438;SDS011;206;48.782;9.252;2024-03-25T05:06:27;5.00;;;2.90;;
438;SDS011;206;48.782;9.252;2024-03-25T05:08:52;3.60;;;2.80;;
438;SDS011;206;48.782;9.252;2024-03-25T05:11:18;2.73;;;2.53;;
438;SDS011;206;48.782;9.252;2024-03-25T05:13:43;2.87;;;2.10;;
438;SDS011;206;48.782;9.252;2024-03-25T05:16:09;6.00;;;2.80;;
438;SDS011;206;48.782;9.252;2024-03-25T05:18:35;4.67;;;2.70;;
438;SDS011;206;48.782;9.252;2024-03-25T05:21:00;6.57;;;2.27;;
438;SDS011;206;48.782;9.252;2024-03-25T05:23:26;2.80;;;2.60;;
438;SDS011;206;48.782;9.252;2024-03-25T05:25:51;4.67;;;3.10;;
438;SDS011;206;48.782;9.252;2024-03-25T05:28:17;8.23;;;3.03;;
438;SDS011;206;48.782;9.252;2024-03-25T05:30:42;14.27;;;3.40;;
438;SDS011;206;48.782;9.252;2024-03-25T05:33:08;4.37;;;2.50;;
438;SDS011;206;48.782;9.252;2024-03-25T05:35:34;4.10;;;2.83;;
438;SDS011;206;48.782;9.252;2024-03-25T05:38:01;10.53;;;2.97;;
438;SDS011;206;48.782;9.252;2024-03-25T05:40:28;4.00;;;3.53;;
438;SDS011;206;48.782;9.252;2024-03-25T05:42:54;7.07;;;3.33;;
438;SDS011;206;48.782;9.252;2024-03-25T05:45:20;6.93;;;3.20;;
438;SDS011;206;48.782;9.252;2024-03-25T05:47:45;5.83;;;3.77;;
438;SDS011;206;48.782;9.252;2024-03-25T05:50:11;5.23;;;2.70;;
438;SDS011;206;48.782;9.252;2024-03-25T05:52:37;3.80;;;3.30;;
438;SDS011;206;48.782;9.252;2024-03-25T05:55:02;5.30;;;3.40;;
438;SDS011;206;48.782;9.252;2024-03-25T05:57:28;4.05;;;3.70;;
438;SDS011;206;48.782;9.252;2024-03-25T05:59:54;6.33;;;3.60;;
438;SDS011;206;48.782;9.252;2024-03-25T06:02:19;6.00;;;3.63;;
438;SDS011;206;48.782;9.252;2024-03-25T06:04:45;5.70;;;3.17;;
438;SDS011;206;48.782;9.252;2024-03-25T06:07:11;4.47;;;2.60;;
438;SDS011;206;48.782;9.252;2024-03-25T06:09:37;8.50;;;3.87;;
438;SDS011;206;48.782;9.252;2024-03-25T06:12:02;4.07;;;3.00;;
438;SDS011;206;48.782;9.252;2024-03-25T06:14:28;3.53;;;2.33;;
438;SDS011;206;48.782;9.252;2024-03-25T06:16:53;7.57;;;2.60;;
438;SDS011;206;48.782;9.252;2024-03-25T06:19:19;8.23;;;3.30;;
438;SDS011;206;48.782;9.252;2024-03-25T06:21:45;4.17;;;2.70;;
438;SDS011;206;48.782;9.252;2024-03-25T06:24:10;4.83;;;3.53;;
438;SDS011;206;48.782;9.252;2024-03-25T06:26:36;6.90;;;3.03;;
438;SDS011;206;48.782;9.252;2024-03-25T06:29:01;2.93;;;2.77;;
438;SDS011;206;48.782;9.252;2024-03-25T06:31:27;10.83;;;3.40;;
438;SDS011;206;48.782;9.252;2024-03-25T06:34:11;2.80;;;2.43;;
438;SDS011;206;48.782;9.252;2024-03-25T06:36:42;3.33;;;2.43;;
438;SDS011;206;48.782;9.252;2024-03-25T06:39:12;3.90;;;3.30;;
438;SDS011;206;48.782;9.252;2024-03-25T06:41:38;6.57;;;3.10;;
438;SDS011;206;48.782;9.252;2024-03-25T06:44:04;11.97;;;2.67;;
438;SDS011;206;48.782;9.252;2024-03-25T06:46:30;3.50;;;2.60;;
438;SDS011;206;48.782;9.252;2024-03-25T06:48:55;6.50;;;3.73;;
438;SDS011;206;48.782;9.252;2024-03-25T06:51:21;7.67;;;3.63;;
438;SDS011;206;48.782;9.252;2024-03-25T06:53:46;3.33;;;3.00;;
438;SDS011;206;48.782;9.252;2024-03-25T06:56:12;4.43;;;2.57;;
438;SDS011;206;48.782;9.252;2024-03-25T06:58:38;6.60;;;3.40;;
438;SDS011;206;48.782;9.252;2024-03-25T07:01:07;8.23;;;2.90;;
438;SDS011;206;48.782;9.252;2024-03-25T07:03:34;4.87;;;2.23;;
438;SDS011;206;48.782;9.252;2024-03-25T07:06:00;5.00;;;3.07;;
438;SDS011;206;48.782;9.252;2024-03-25T07:08:27;6.60;;;3.20;;
438;SDS011;206;48.782;9.252;2024-03-25T07:10:53;7.00;;;4.20;;
438;SDS011;206;48.782;9.252;2024-03-25T07:13:19;5.73;;;3.17;;
438;SDS011;206;48.782;9.252;2024-03-25T07:15:44;5.30;;;3.07;;
438;SDS011;206;48.782;9.252;2024-03-25T07:18:10;4.97;;;2.80;;
438;SDS011;206;48.782;9.252;2024-03-25T07:20:38;7.97;;;4.50;;
438;SDS011;206;48.782;9.252;2024-03-25T07:23:04;4.90;;;4.57;;
438;SDS011;206;48.782;9.252;2024-03-25T07:25:30;11.73;;;4.00;;
438;SDS011;206;48.782;9.252;2024-03-25T07:27:56;5.27;;;2.53;;
438;SDS011;206;48.782;9.252;2024-03-25T07:30:22;4.83;;;3.03;;
438;SDS011;206;48.782;9.252;2024-03-25T07:32:50;7.90;;;3.20;;
438;SDS011;206;48.782;9.252;2024-03-25T07:35:16;4.93;;;3.07;;
438;SDS011;206;48.782;9.252;2024-03-25T07:37:42;5.97;;;3.00;;
438;SDS011;206;48.782;9.252;2024-03-25T07:40:10;4.27;;;2.90;;
438;SDS011;206;48.782;9.252;2024-03-25T07:42:37;8.27;;;3.00;;
438;SDS011;206;48.782;9.252;2024-03-25T07:45:03;6.63;;;4.13;;
438;SDS011;206;48.782;9.252;2024-03-25T07:47:32;5.00;;;2.57;;
438;SDS011;206;48.782;9.252;2024-03-25T07:49:58;5.27;;;3.03;;
438;SDS011;206;48.782;9.252;2024-03-25T07:52:25;10.50;;;3.10;;
438;SDS011;206;48.782;9.252;2024-03-25T07:54:51;6.63;;;3.00;;
438;SDS011;206;48.782;9.252;2024-03-25T07:57:19;9.03;;;4.27;;
438;SDS011;206;48.782;9.252;2024-03-25T07:59:45;5.27;;;3.43;;
438;SDS011;206;48.782;9.252;2024-03-25T08:02:11;7.73;;;4.17;;
438;SDS011;206;48.782;9.252;2024-03-25T08:04:37;5.67;;;2.40;;
438;SDS011;206;48.782;9.252;2024-03-25T08:07:02;12.50;;;4.40;;
438;SDS011;206;48.782;9.252;2024-03-25T08:09:28;2.20;;;2.00;;
438;SDS011;206;48.782;9.252;2024-03-25T08:11:54;6.10;;;2.50;;
438;SDS011;206;48.782;9.252;2024-03-25T08:14:19;4.80;;;3.10;;
438;SDS011;206;48.782;9.252;2024-03-25T08:16:45;6.13;;;3.40;;
438;SDS011;206;48.782;9.252;2024-03-25T08:19:11;3.47;;;3.30;;
438;SDS011;206;48.782;9.252;2024-03-25T08:21:36;4.37;;;2.37;;
438;SDS011;206;48.782;9.252;2024-03-25T08:24:02;7.87;;;2.40;;
438;SDS011;206;48.782;9.252;2024-03-25T08:26:28;4.83;;;3.80;;
438;SDS011;206;48.782;9.252;2024-03-25T08:28:54;4.37;;;1.73;;
438;SDS011;206;48.782;9.252;2024-03-25T08:31:19;3.83;;;1.20;;
438;SDS011;206;48.782;9.252;2024-03-25T08:33:45;4.03;;;1.87;;
438;SDS011;206;48.782;9.252;2024-03-25T08:36:11;3.80;;;1.90;;
438;SDS011;206;48.782;9.252;2024-03-25T08:38:36;8.60;;;2.23;;
438;SDS011;206;48.782;9.252;2024-03-25T08:41:02;2.73;;;1.80;;
438;SDS011;206;48.782;9.252;2024-03-25T08:43:28;3.73;;;1.73;;
438;SDS011;206;48.782;9.252;2024-03-25T08:45:53;3.00;;;1.30;;
438;SDS011;206;48.782;9.252;2024-03-25T08:48:19;5.50;;;2.10;;
438;SDS011;206;48.782;9.252;2024-03-25T08:50:44;2.47;;;1.70;;
438;SDS011;206;48.782;9.252;2024-03-25T08:53:10;2.10;;;1.43;;
438;SDS011;206;48.782;9.252;2024-03-25T08:55:35;4.73;;;1.97;;
438;SDS011;206;48.782;9.252;2024-03-25T08:58:01;4.20;;;1.63;;
438;SDS011;206;48.782;9.252;2024-03-25T09:00:28;6.47;;;1.57;;
438;SDS011;206;48.782;9.252;2024-03-25T09:02:54;2.70;;;1.40;;
438;SDS011;206;48.782;9.252;2024-03-25T09:05:20;3.57;;;1.53;;
438;SDS011;206;48.782;9.252;2024-03-25T09:07:46;2.80;;;1.60;;
438;SDS011;206;48.782;9.252;2024-03-25T09:10:16;3.50;;;2.20;;
438;SDS011;206;48.782;9.252;2024-03-25T09:13:01;2.30;;;1.93;;
438;SDS011;206;48.782;9.252;2024-03-25T09:15:26;2.13;;;1.60;;
438;SDS011;206;48.782;9.252;2024-03-25T09:17:52;3.20;;;1.63;;
438;SDS011;206;48.782;9.252;2024-03-25T09:20:17;2.53;;;2.37;;
438;SDS011;206;48.782;9.252;2024-03-25T09:22:45;4.20;;;1.80;;
438;SDS011;206;48.782;9.252;2024-03-25T09:25:14;4.57;;;1.50;;
438;SDS011;206;48.782;9.252;2024-03-25T09:27:40;1.87;;;1.20;;
438;SDS011;206;48.782;9.252;2024-03-25T09:30:10;7.70;;;1.90;;
438;SDS011;206;48.782;9.252;2024-03-25T09:32:36;3.70;;;1.87;;
438;SDS011;206;48.782;9.252;2024-03-25T09:35:02;3.60;;;2.70;;
438;SDS011;206;48.782;9.252;2024-03-25T09:37:28;4.97;;;2.13;;
438;SDS011;206;48.782;9.252;2024-03-25T09:39:54;4.00;;;3.07;;
438;SDS011;206;48.782;9.252;2024-03-25T09:43:05;2.80;;;1.50;;
438;SDS011;206;48.782;9.252;2024-03-25T09:45:09;2.03;;;1.83;;
438;SDS011;206;48.782;9.252;2024-03-25T09:47:36;4.03;;;1.87;;
438;SDS011;206;48.782;9.252;2024-03-25T09:50:04;2.13;;;1.97;;
438;SDS011;206;48.782;9.252;2024-03-25T09:52:33;2.47;;;1.50;;
438;SDS011;206;48.782;9.252;2024-03-25T09:54:58;3.10;;;1.60;;
438;SDS011;206;48.782;9.252;2024-03-25T09:57:24;3.47;;;2.33;;
438;SDS011;206;48.782;9.252;2024-03-25T09:59:50;1.63;;;1.53;;
438;SDS011;206;48.782;9.252;2024-03-25T10:02:17;3.37;;;2.20;;
438;SDS011;206;48.782;9.252;2024-03-25T10:04:44;3.07;;;2.17;;
438;SDS011;206;48.782;9.252;2024-03-25T10:07:16;3.77;;;2.07;;
438;SDS011;206;48.782;9.252;2024-03-25T10:09:47;5.40;;;2.10;;
438;SDS011;206;48.782;9.252;2024-03-25T10:12:12;7.50;;;2.47;;
438;SDS011;206;48.782;9.252;2024-03-25T10:14:39;4.80;;;2.23;;
438;SDS011;206;48.782;9.252;2024-03-25T10:17:05;3.30;;;2.10;;
438;SDS011;206;48.782;9.252;2024-03-25T10:19:32;4.27;;;1.70;;
438;SDS011;206;48.782;9.252;2024-03-25T10:22:02;2.37;;;2.07;;
438;SDS011;206;48.782;9.252;2024-03-25T10:27:09;4.10;;;1.53;;
438;SDS011;206;48.782;9.252;2024-03-25T10:29:37;2.33;;;2.20;;
438;SDS011;206;48.782;9.252;2024-03-25T10:32:03;4.00;;;1.87;;
438;SDS011;206;48.782;9.252;2024-03-25T10:34:29;1.70;;;1.37;;
438;SDS011;206;48.782;9.252;2024-03-25T10:36:58;4.33;;;2.23;;
438;SDS011;206;48.782;9.252;2024-03-25T10:39:26;3.90;;;1.73;;
438;SDS011;206;48.782;9.252;2024-03-25T10:41:56;2.60;;;2.27;;
438;SDS011;206;48.782;9.252;2024-03-25T10:44:25;2.90;;;2.17;;
438;SDS011;206;48.782;9.252;2024-03-25T10:46:53;3.37;;;2.50;;
438;SDS011;206;48.782;9.252;2024-03-25T10:49:32;7.00;;;4.20;;
438;SDS011;206;48.782;9.252;2024-03-25T10:52:18;9.67;;;3.30;;
438;SDS011;206;48.782;9.252;2024-03-25T10:54:45;3.57;;;2.47;;
438;SDS011;206;48.782;9.252;2024-03-25T10:57:12;4.40;;;2.10;;
438;SDS011;206;48.782;9.252;2024-03-25T10:59:38;1.50;;;1.47;;
438;SDS011;206;48.782;9.252;2024-03-25T11:02:08;2.90;;;1.53;;
438;SDS011;206;48.782;9.252;2024-03-25T11:04:34;2.37;;;1.67;;
438;SDS011;206;48.782;9.252;2024-03-25T11:07:08;4.30;;;2.00;;
438;SDS011;206;48.782;9.252;2024-03-25T11:09:40;2.77;;;2.57;;
438;SDS011;206;48.782;9.252;2024-03-25T11:12:09;2.53;;;1.73;;
438;SDS011;206;48.782;9.252;2024-03-25T11:14:36;5.00;;;1.83;;
438;SDS011;206;48.782;9.252;2024-03-25T11:17:02;1.70;;;1.63;;
438;SDS011;206;48.782;9.252;2024-03-25T11:19:28;8.80;;;2.50;;
438;SDS011;206;48.782;9.252;2024-03-25T11:22:06;3.43;;;1.97;;
438;SDS011;206;48.782;9.252;2024-03-25T11:24:34;2.80;;;1.77;;
438;SDS011;206;48.782;9.252;2024-03-25T11:27:02;6.80;;;2.00;;
438;SDS011;206;48.782;9.252;2024-03-25T11:29:28;2.13;;;1.70;;
438;SDS011;206;48.782;9.252;2024-03-25T11:31:53;2.23;;;1.73;;
438;SDS011;206;48.782;9.252;2024-03-25T11:34:21;3.60;;;1.93;;
438;SDS011;206;48.782;9.252;2024-03-25T11:36:47;5.70;;;1.87;;
438;SDS011;206;48.782;9.252;2024-03-25T11:39:13;2.73;;;2.03;;
438;SDS011;206;48.782;9.252;2024-03-25T11:41:39;2.27;;;2.00;;
438;SDS011;206;48.782;9.252;2024-03-25T11:44:05;2.63;;;2.20;;
438;SDS011;206;48.782;9.252;2024-03-25T11:46:33;5.53;;;2.97;;
438;SDS011;206;48.782;9.252;2024-03-25T11:49:02;3.17;;;1.60;;
438;SDS011;206;48.782;9.252;2024-03-25T11:51:33;3.73;;;2.33;;
438;SDS011;206;48.782;9.252;2024-03-25T11:53:58;2.53;;;2.27;;
438;SDS011;206;48.782;9.252;2024-03-25T11:56:25;3.40;;;2.53;;
438;SDS011;206;48.782;9.252;2024-03-25T11:58:51;4.73;;;2.20;;
438;SDS011;206;48.782;9.252;2024-03-25T12:01:17;3.40;;;2.30;;
438;SDS011;206;48.782;9.252;2024-03-25T12:03:42;2.50;;;2.20;;
438;SDS011;206;48.782;9.252;2024-03-25T12:06:08;2.23;;;1.90;;
438;SDS011;206;48.782;9.252;2024-03-25T12:08:33;3.17;;;1.50;;
438;SDS011;206;48.782;9.252;2024-03-25T12:11:09;4.30;;;2.33;;
438;SDS011;206;48.782;9.252;2024-03-25T12:13:44;3.13;;;1.83;;
438;SDS011;206;48.782;9.252;2024-03-25T12:16:09;1.73;;;1.70;;
438;SDS011;206;48.782;9.252;2024-03-25T12:18:35;4.57;;;2.10;;
438;SDS011;206;48.782;9.252;2024-03-25T12:21:02;2.60;;;2.17;;
438;SDS011;206;48.782;9.252;2024-03-25T12:23:31;2.23;;;2.10;;
438;SDS011;206;48.782;9.252;2024-03-25T12:26:01;8.90;;;1.87;;
438;SDS011;206;48.782;9.252;2024-03-25T12:28:27;2.27;;;1.77;;
438;SDS011;206;48.782;9.252;2024-03-25T12:30:54;4.10;;;2.10;;
438;SDS011;206;48.782;9.252;2024-03-25T12:33:23;4.67;;;1.70;;
438;SDS011;206;48.782;9.252;2024-03-25T12:35:50;2.83;;;1.90;;
438;SDS011;206;48.782;9.252;2024-03-25T12:38:25;1.53;;;1.37;;
438;SDS011;206;48.782;9.252;2024-03-25T12:40:53;3.63;;;2.10;;
438;SDS011;206;48.782;9.252;2024-03-25T12:43:28;5.67;;;2.30;;
438;SDS011;206;48.782;9.252;2024-03-25T12:45:56;3.90;;;2.23;;
438;SDS011;206;48.782;9.252;2024-03-25T12:48:22;2.50;;;1.97;;
438;SDS011;206;48.782;9.252;2024-03-25T12:50:48;2.93;;;1.60;;
438;SDS011;206;48.782;9.252;2024-03-25T12:53:16;4.30;;;2.13;;
438;SDS011;206;48.782;9.252;2024-03-25T12:55:42;4.30;;;2.30;;
438;SDS011;206;48.782;9.252;2024-03-25T12:58:08;3.73;;;2.30;;
438;SDS011;206;48.782;9.252;2024-03-25T13:00:33;3.70;;;1.97;;
438;SDS011;206;48.782;9.252;2024-03-25T13:02:59;3.63;;;1.70;;
438;SDS011;206;48.782;9.252;2024-03-25T13:05:27;3.57;;;2.03;;
438;SDS011;206;48.782;9.252;2024-03-25T13:07:53;2.97;;;1.47;;
438;SDS011;206;48.782;9.252;2024-03-25T13:10:19;2.33;;;2.10;;
438;SDS011;206;48.782;9.252;2024-03-25T13:12:45;2.33;;;1.90;;
438;SDS011;206;48.782;9.252;2024-03-25T13:15:11;2.47;;;1.80;;
438;SDS011;206;48.782;9.252;2024-03-25T13:17:36;1.73;;;1.63;;
438;SDS011;206;48.782;9.252;2024-03-25T13:20:02;2.30;;;1.40;;
438;SDS011;206;48.782;9.252;2024-03-25T13:22:29;4.13;;;1.60;;
438;SDS011;206;48.782;9.252;2024-03-25T13:24:57;1.63;;;1.43;;
438;SDS011;206;48.782;9.252;2024-03-25T13:27:23;2.90;;;1.90;;
438;SDS011;206;48.782;9.252;2024-03-25T13:29:50;5.00;;;1.73;;
438;SDS011;206;48.782;9.252;2024-03-25T13:32:17;2.10;;;1.43;;
438;SDS011;206;48.782;9.252;2024-03-25T13:34:43;6.00;;;1.90;;
438;SDS011;206;48.782;9.252;2024-03-25T13:37:09;4.57;;;2.03;;
438;SDS011;206;48.782;9.252;2024-03-25T13:39:35;3.90;;;1.60;;
438;SDS011;206;48.782;9.252;2024-03-25T13:42:01;2.13;;;1.67;;
438;SDS011;206;48.782;9.252;2024-03-25T13:44:27;3.07;;;1.37;;
438;SDS011;206;48.782;9.252;2024-03-25T13:46:53;3.47;;;1.93;;
438;SDS011;206;48.782;9.252;2024-03-25T13:49:18;3.30;;;1.70;;
438;SDS011;206;48.782;9.252;2024-03-25T13:51:45;2.33;;;1.50;;
438;SDS011;206;48.782;9.252;2024-03-25T13:54:11;3.90;;;2.60;;
438;SDS011;206;48.782;9.252;2024-03-25T13:56:37;3.07;;;1.90;;
438;SDS011;206;48.782;9.252;2024-03-25T13:59:02;3.53;;;1.90;;
438;SDS011;206;48.782;9.252;2024-03-25T14:01:28;3.30;;;1.53;;
438;SDS011;206;48.782;9.252;2024-03-25T14:03:54;1.47;;;1.37;;
438;SDS011;206;48.782;9.252;2024-03-25T14:06:19;3.27;;;1.53;;
438;SDS011;206;48.782;9.252;2024-03-25T14:08:45;3.10;;;2.03;;
438;SDS011;206;48.782;9.252;2024-03-25T14:11:10;7.63;;;2.00;;
438;SDS011;206;48.782;9.252;2024-03-25T14:13:36;1.63;;;1.57;;
438;SDS011;206;48.782;9.252;2024-03-25T14:16:02;1.53;;;1.40;;
438;SDS011;206;48.782;9.252;2024-03-25T14:18:27;3.17;;;1.57;;
438;SDS011;206;48.782;9.252;2024-03-25T14:20:53;2.20;;;1.77;;
438;SDS011;206;48.782;9.252;2024-03-25T14:23:18;2.33;;;1.80;;
438;SDS011;206;48.782;9.252;2024-03-25T14:25:44;1.60;;;1.50;;
438;SDS011;206;48.782;9.252;2024-03-25T14:28:10;2.93;;;2.07;;
438;SDS011;206;48.782;9.252;2024-03-25T14:30:35;4.17;;;2.00;;
438;SDS011;206;48.782;9.252;2024-03-25T14:33:01;3.70;;;1.60;;
438;SDS011;206;48.782;9.252;2024-03-25T14:35:27;2.37;;;1.53;;
438;SDS011;206;48.782;9.252;2024-03-25T14:37:52;2.33;;;1.57;;
438;SDS011;206;48.782;9.252;2024-03-25T14:40:19;2.53;;;1.50;;
438;SDS011;206;48.782;9.252;2024-03-25T14:42:44;3.03;;;1.40;;
438;SDS011;206;48.782;9.252;2024-03-25T14:45:10;1.97;;;1.20;;
438;SDS011;206;48.782;9.252;2024-03-25T14:47:35;2.83;;;1.57;;
438;SDS011;206;48.782;9.252;2024-03-25T14:50:01;3.80;;;1.90;;
438;SDS011;206;48.782;9.252;2024-03-25T14:52:29;2.00;;;1.30;;
438;SDS011;206;48.782;9.252;2024-03-25T14:54:54;2.23;;;1.47;;
438;SDS011;206;48.782;9.252;2024-03-25T14:57:20;2.47;;;1.50;;
438;SDS011;206;48.782;9.252;2024-03-25T14:59:45;1.30;;;1.30;;
438;SDS011;206;48.782;9.252;2024-03-25T15:02:11;3.40;;;1.53;;
438;SDS011;206;48.782;9.252;2024-03-25T15:04:38;2.07;;;1.30;;
438;SDS011;206;48.782;9.252;2024-03-25T15:07:09;1.70;;;1.50;;
438;SDS011;206;48.782;9.252;2024-03-25T15:09:35;2.80;;;1.43;;
438;SDS011;206;48.782;9.252;2024-03-25T15:12:00;2.20;;;1.70;;
438;SDS011;206;48.782;9.252;2024-03-25T15:14:27;5.50;;;2.10;;
438;SDS011;206;48.782;9.252;2024-03-25T15:16:55;3.00;;;1.90;;
438;SDS011;206;48.782;9.252;2024-03-25T15:19:24;2.60;;;1.90;;
438;SDS011;206;48.782;9.252;2024-03-25T15:21:50;1.87;;;1.33;;
438;SDS011;206;48.782;9.252;2024-03-25T15:24:16;3.10;;;2.00;;
438;SDS011;206;48.782;9.252;2024-03-25T15:26:41;3.23;;;1.80;;
438;SDS011;206;48.782;9.252;2024-03-25T15:29:07;2.13;;;1.57;;
438;SDS011;206;48.782;9.252;2024-03-25T15:31:33;2.03;;;1.77;;
438;SDS011;206;48.782;9.252;2024-03-25T15:33:58;2.57;;;1.50;;
438;SDS011;206;48.782;9.252;2024-03-25T15:36:24;2.60;;;1.57;;
438;SDS011;206;48.782;9.252;2024-03-25T15:38:51;2.13;;;1.73;;
438;SDS011;206;48.782;9.252;2024-03-25T15:41:17;4.13;;;2.10;;
438;SDS011;206;48.782;9.252;2024-03-25T15:43:43;2.90;;;2.10;;